Time;durP1;ratioP1;P1;durP2;ratioP2;P2;SDS_P1;SDS_P2;PMS_P1;PMS_P2;Temp;Humidity;BMP_temperature;BMP_pressure;BME280_temperature;BME280_humidity;BME280_pressure;Samples;Min_cycle;Max_cycle;Signal;HPM_P1;HPM_P2
2022/08/17 00:01:13;;;;;;;;;33.00;29.33;;;;;;;;5120031;27;45361;-75
2022/08/17 00:03:40;;;;;;;;;34.00;31.00;;;;;;;;5119896;27;45587;-76
2022/08/17 00:06:10;;;;;;;;;37.33;31.00;;;;;;;;5119576;27;46559;-76
2022/08/17 00:08:47;;;;;;;;;35.00;30.00;;;;;;;;5119452;27;45335;-75
2022/08/17 00:11:18;;;;;;;;;34.00;30.33;;;;;;;;5119636;27;45226;-76
2022/08/17 00:13:44;;;;;;;;;35.67;32.00;;;;;;;;5119726;27;45340;-76
2022/08/17 00:16:12;;;;;;;;;31.33;28.67;;;;;;;;5119254;27;47153;-75
2022/08/17 00:18:37;;;;;;;;;33.67;30.67;;;;;;;;5119547;27;45327;-75
2022/08/17 00:21:04;;;;;;;;;39.00;33.33;;;;;;;;5119580;27;45346;-76
2022/08/17 00:23:29;;;;;;;;;41.33;35.33;;;;;;;;5120016;27;45364;-76
2022/08/17 00:25:54;;;;;;;;;42.33;35.00;;;;;;;;5119109;27;46546;-76
2022/08/17 00:28:20;;;;;;;;;30.67;28.00;;;;;;;;5119296;27;45528;-76
2022/08/17 00:30:47;;;;;;;;;38.67;31.67;;;;;;;;5119497;27;45269;-76
2022/08/17 00:33:15;;;;;;;;;35.33;33.00;;;;;;;;5119575;27;45342;-76
2022/08/17 00:35:41;;;;;;;;;40.00;35.00;;;;;;;;5119226;27;46125;-76
2022/08/17 00:38:08;;;;;;;;;33.67;31.33;;;;;;;;5119250;27;45243;-76
2022/08/17 00:40:35;;;;;;;;;31.67;30.33;;;;;;;;5119521;27;45465;-76
2022/08/17 00:43:08;;;;;;;;;43.67;35.00;;;;;;;;5119401;27;45267;-76
2022/08/17 00:45:33;;;;;;;;;45.67;36.33;;;;;;;;5118986;27;46332;-76
2022/08/17 00:47:58;;;;;;;;;32.33;31.00;;;;;;;;5118453;27;45355;-76
2022/08/17 00:50:23;;;;;;;;;37.67;31.33;;;;;;;;5119255;27;45354;-76
2022/08/17 00:52:53;;;;;;;;;39.00;33.33;;;;;;;;5119301;27;45454;-76
2022/08/17 00:55:19;;;;;;;;;36.00;33.00;;;;;;;;5119129;27;45490;-76
2022/08/17 00:57:47;;;;;;;;;41.00;35.67;;;;;;;;5118784;27;45287;-76
2022/08/17 01:00:12;;;;;;;;;40.00;34.33;;;;;;;;5100604;27;45430;-76
2022/08/17 01:02:41;;;;;;;;;43.33;36.33;;;;;;;;5119087;27;45525;-76
2022/08/17 01:05:08;;;;;;;;;37.00;33.33;;;;;;;;5118851;27;46527;-76
2022/08/17 01:07:34;;;;;;;;;43.33;31.33;;;;;;;;5118608;27;45396;-76
2022/08/17 01:10:01;;;;;;;;;35.33;32.67;;;;;;;;5118943;27;45303;-75
2022/08/17 01:12:27;;;;;;;;;44.33;37.00;;;;;;;;5118748;27;45575;-75
2022/08/17 01:14:53;;;;;;;;;40.67;33.67;;;;;;;;5118608;27;45398;-75
2022/08/17 01:17:18;;;;;;;;;38.00;34.00;;;;;;;;5118654;27;45265;-76
2022/08/17 01:19:44;;;;;;;;;39.33;34.33;;;;;;;;5118855;27;45423;-75
2022/08/17 01:22:15;;;;;;;;;41.00;34.67;;;;;;;;5118965;27;45358;-77
2022/08/17 01:24:43;;;;;;;;;43.33;35.33;;;;;;;;5118733;27;45636;-77
2022/08/17 01:27:08;;;;;;;;;40.67;33.67;;;;;;;;5118549;27;45384;-75
2022/08/17 01:29:34;;;;;;;;;40.33;34.67;;;;;;;;5118487;27;45232;-75
2022/08/17 01:32:03;;;;;;;;;44.33;35.33;;;;;;;;5118906;27;45367;-75
2022/08/17 01:34:28;;;;;;;;;44.33;36.33;;;;;;;;5118402;27;47182;-76
2022/08/17 01:36:54;;;;;;;;;39.67;33.33;;;;;;;;5118429;27;45441;-75
2022/08/17 01:39:24;;;;;;;;;39.67;33.67;;;;;;;;5118493;27;45287;-75
2022/08/17 01:41:52;;;;;;;;;43.00;35.33;;;;;;;;5118716;27;45236;-75
2022/08/17 01:44:18;;;;;;;;;39.33;34.67;;;;;;;;5118105;27;46382;-75
2022/08/17 01:46:43;;;;;;;;;42.67;33.67;;;;;;;;5118261;27;45450;-75
2022/08/17 01:49:09;;;;;;;;;42.67;34.33;;;;;;;;5118378;27;45445;-75
2022/08/17 01:51:35;;;;;;;;;45.33;34.67;;;;;;;;5118310;27;45528;-75
2022/08/17 01:54:04;;;;;;;;;42.33;36.33;;;;;;;;5118168;27;47100;-75
2022/08/17 01:56:31;;;;;;;;;35.67;33.33;;;;;;;;5118226;27;45256;-76
2022/08/17 01:58:56;;;;;;;;;42.00;35.33;;;;;;;;5120833;27;45338;-75
2022/08/17 02:01:25;;;;;;;;;41.00;36.67;;;;;;;;5122038;27;45345;-74
2022/08/17 02:03:51;;;;;;;;;42.33;34.67;;;;;;;;5121668;27;47121;-74
2022/08/17 02:06:17;;;;;;;;;41.00;35.00;;;;;;;;5121458;27;45177;-75
2022/08/17 02:08:43;;;;;;;;;47.00;36.33;;;;;;;;5121611;27;45383;-74
2022/08/17 02:11:10;;;;;;;;;41.00;35.67;;;;;;;;5121773;27;45390;-75
2022/08/17 02:13:36;;;;;;;;;43.67;37.00;;;;;;;;5121670;27;46453;-74
2022/08/17 02:16:02;;;;;;;;;46.67;36.00;;;;;;;;5121394;27;45421;-75
2022/08/17 02:18:27;;;;;;;;;45.33;36.67;;;;;;;;5121628;27;45498;-75
2022/08/17 02:20:52;;;;;;;;;47.00;37.00;;;;;;;;5121843;27;45374;-75
2022/08/17 02:23:18;;;;;;;;;40.00;34.67;;;;;;;;5121504;27;45345;-75
2022/08/17 02:25:46;;;;;;;;;35.33;32.00;;;;;;;;5121628;27;45318;-75
2022/08/17 02:28:12;;;;;;;;;39.00;33.33;;;;;;;;5121392;27;45354;-75
2022/08/17 02:30:37;;;;;;;;;44.33;38.00;;;;;;;;5121510;27;45424;-75
2022/08/17 02:33:02;;;;;;;;;44.00;37.00;;;;;;;;5121352;27;45243;-73
2022/08/17 02:35:28;;;;;;;;;42.67;35.00;;;;;;;;5121308;27;45416;-75
2022/08/17 02:37:53;;;;;;;;;45.00;38.00;;;;;;;;5121319;27;45304;-75
2022/08/17 02:40:20;;;;;;;;;45.33;36.33;;;;;;;;5121470;27;45301;-75
2022/08/17 02:42:45;;;;;;;;;42.00;36.00;;;;;;;;5121229;27;45494;-75
2022/08/17 02:45:15;;;;;;;;;47.67;37.33;;;;;;;;5120878;27;45268;-75
2022/08/17 02:47:41;;;;;;;;;40.33;35.00;;;;;;;;5121285;27;45342;-74
2022/08/17 02:50:07;;;;;;;;;32.67;31.67;;;;;;;;5121457;27;45371;-74
2022/08/17 02:52:34;;;;;;;;;38.67;34.00;;;;;;;;5120673;27;45454;-74
2022/08/17 02:54:59;;;;;;;;;44.67;35.67;;;;;;;;5120918;27;45442;-75
2022/08/17 02:57:24;;;;;;;;;43.00;34.67;;;;;;;;5120976;27;45380;-75
2022/08/17 02:59:49;;;;;;;;;50.00;37.33;;;;;;;;5121146;27;45407;-75
2022/08/17 03:02:14;;;;;;;;;48.00;36.67;;;;;;;;5120877;27;45288;-75
2022/08/17 03:04:40;;;;;;;;;45.67;36.00;;;;;;;;5120825;27;45211;-75
2022/08/17 03:07:05;;;;;;;;;48.00;38.00;;;;;;;;5120818;27;45223;-75
2022/08/17 03:09:31;;;;;;;;;51.67;41.67;;;;;;;;5120429;27;45588;-75
2022/08/17 03:12:07;;;;;;;;;47.33;39.67;;;;;;;;5120345;27;47330;-75
2022/08/17 03:14:35;;;;;;;;;47.00;40.00;;;;;;;;5120594;27;45337;-75
2022/08/17 03:17:00;;;;;;;;;51.67;40.00;;;;;;;;5120567;27;45321;-75
2022/08/17 03:19:25;;;;;;;;;45.33;39.67;;;;;;;;5120787;27;45275;-75
2022/08/17 03:21:51;;;;;;;;;51.33;42.33;;;;;;;;5120578;27;45367;-75
2022/08/17 03:24:16;;;;;;;;;43.67;37.33;;;;;;;;5120575;27;45248;-75
2022/08/17 03:26:41;;;;;;;;;47.75;40.00;;;;;;;;5120755;27;45390;-75
2022/08/17 03:29:07;;;;;;;;;51.00;42.00;;;;;;;;5120576;27;45526;-75
2022/08/17 03:31:32;;;;;;;;;55.00;43.25;;;;;;;;5120155;27;46958;-75
2022/08/17 03:33:58;;;;;;;;;55.00;41.75;;;;;;;;5120496;27;45259;-75
2022/08/17 03:36:23;;;;;;;;;51.33;43.00;;;;;;;;5120517;27;45436;-74
2022/08/17 03:38:48;;;;;;;;;55.25;43.75;;;;;;;;5120662;27;45234;-75
2022/08/17 03:41:13;;;;;;;;;50.75;42.25;;;;;;;;5120203;27;46449;-75
2022/08/17 03:43:39;;;;;;;;;56.00;43.00;;;;;;;;5120052;27;45343;-75
2022/08/17 03:57:07;;;;;;;;;60.75;46.25;;;;;;;;5120024;27;45417;-76
2022/08/17 03:59:33;;;;;;;;;58.00;45.75;;;;;;;;5119987;27;45343;-75
2022/08/17 04:02:01;;;;;;;;;52.75;44.00;;;;;;;;5119827;27;45302;-76
2022/08/17 04:04:26;;;;;;;;;56.75;46.75;;;;;;;;5119806;27;45336;-75
2022/08/17 04:06:51;;;;;;;;;52.50;42.50;;;;;;;;5119853;27;45323;-76
2022/08/17 04:09:16;;;;;;;;;58.00;45.00;;;;;;;;5119657;27;45296;-76
2022/08/17 04:11:42;;;;;;;;;57.75;45.75;;;;;;;;5119643;27;46312;-75
2022/08/17 04:14:07;;;;;;;;;58.25;47.00;;;;;;;;5119674;27;45236;-76
2022/08/17 04:16:33;;;;;;;;;57.00;45.00;;;;;;;;5119692;27;45157;-76
2022/08/17 04:18:59;;;;;;;;;57.75;44.25;;;;;;;;5119972;27;45367;-75
2022/08/17 04:21:24;;;;;;;;;64.25;48.50;;;;;;;;5118209;27;46178;-76
2022/08/17 04:23:49;;;;;;;;;58.00;45.25;;;;;;;;5119532;27;45231;-76
2022/08/17 04:26:15;;;;;;;;;55.25;44.75;;;;;;;;5119653;27;45403;-76
2022/08/17 04:28:41;;;;;;;;;61.75;47.50;;;;;;;;5119416;27;45304;-76
2022/08/17 04:31:08;;;;;;;;;54.00;42.00;;;;;;;;5119236;27;46385;-76
2022/08/17 04:33:33;;;;;;;;;54.00;44.50;;;;;;;;5119445;27;45459;-76
2022/08/17 04:35:59;;;;;;;;;59.25;44.50;;;;;;;;5119326;27;45343;-76
2022/08/17 04:38:26;;;;;;;;;60.50;47.50;;;;;;;;5119633;27;45320;-76
2022/08/17 04:43:57;;;;;;;;;56.50;44.00;;;;;;;;5055512;28;45511;-76
2022/08/17 04:46:27;;;;;;;;;61.75;46.25;;;;;;;;5055781;28;45366;-76
2022/08/17 04:48:54;;;;;;;;;55.67;45.00;;;;;;;;5055621;28;45512;-76
2022/08/17 04:51:21;;;;;;;;;55.00;44.75;;;;;;;;5055323;28;47542;-76
2022/08/17 04:53:48;;;;;;;;;53.67;44.67;;;;;;;;5055533;28;45322;-76
2022/08/17 04:56:14;;;;;;;;;55.00;45.67;;;;;;;;5055578;28;45343;-75
2022/08/17 04:58:40;;;;;;;;;58.00;45.00;;;;;;;;5055598;28;45439;-75
2022/08/17 05:01:05;;;;;;;;;62.25;46.00;;;;;;;;5055058;28;46014;-75
2022/08/17 05:03:31;;;;;;;;;53.25;44.25;;;;;;;;5055537;28;45492;-76
2022/08/17 05:05:56;;;;;;;;;59.00;47.50;;;;;;;;5055452;28;45349;-76
2022/08/17 05:08:21;;;;;;;;;63.00;47.25;;;;;;;;5055435;28;45441;-76
2022/08/17 05:10:47;;;;;;;;;60.75;48.25;;;;;;;;5055351;28;45377;-75
2022/08/17 05:13:15;;;;;;;;;63.25;51.25;;;;;;;;5055219;28;45460;-76
2022/08/17 05:15:41;;;;;;;;;52.75;43.75;;;;;;;;5113085;27;45447;-76
2022/08/17 05:18:07;;;;;;;;;64.75;50.75;;;;;;;;5118993;27;45367;-76
2022/08/17 05:20:33;;;;;;;;;62.25;48.25;;;;;;;;5118592;27;45352;-76
2022/08/17 05:23:00;;;;;;;;;66.75;50.00;;;;;;;;5118719;27;45298;-76
2022/08/17 05:25:27;;;;;;;;;63.25;49.75;;;;;;;;5118456;27;45239;-76
2022/08/17 05:27:53;;;;;;;;;64.00;48.75;;;;;;;;5118683;27;45424;-75
2022/08/17 05:30:19;;;;;;;;;62.75;49.25;;;;;;;;5118311;27;45379;-76
2022/08/17 05:32:54;;;;;;;;;64.00;51.25;;;;;;;;5119429;27;45345;-76
2022/08/17 05:35:20;;;;;;;;;55.25;45.00;;;;;;;;5122369;27;45398;-75
2022/08/17 05:37:46;;;;;;;;;62.00;47.50;;;;;;;;5122344;27;45293;-75
2022/08/17 05:40:11;;;;;;;;;59.50;47.75;;;;;;;;5121923;27;45956;-76
2022/08/17 05:42:36;;;;;;;;;60.00;49.50;;;;;;;;5122101;27;45299;-75
2022/08/17 05:45:02;;;;;;;;;55.50;44.75;;;;;;;;5122097;27;45318;-76
2022/08/17 05:47:29;;;;;;;;;58.00;46.50;;;;;;;;5122304;27;45398;-76
2022/08/17 05:49:54;;;;;;;;;60.25;47.25;;;;;;;;5121846;27;47064;-76
2022/08/17 05:52:20;;;;;;;;;61.00;46.50;;;;;;;;5121770;27;45418;-75
2022/08/17 05:55:03;;;;;;;;;65.25;48.50;;;;;;;;5121951;27;45410;-75
2022/08/17 05:57:34;;;;;;;;;66.25;49.75;;;;;;;;5122216;27;45204;-75
2022/08/17 06:00:09;;;;;;;;;61.50;47.75;;;;;;;;5121471;27;46042;-75
2022/08/17 06:02:46;;;;;;;;;60.25;46.00;;;;;;;;5121731;27;45421;-75
2022/08/17 06:05:20;;;;;;;;;65.00;49.50;;;;;;;;5121664;27;45370;-75
2022/08/17 06:07:56;;;;;;;;;60.00;47.00;;;;;;;;5121755;27;45300;-76
2022/08/17 06:10:33;;;;;;;;;59.75;47.50;;;;;;;;5121462;27;45444;-75
2022/08/17 06:13:08;;;;;;;;;52.75;43.75;;;;;;;;5121576;27;45340;-75
2022/08/17 06:15:52;;;;;;;;;64.75;47.75;;;;;;;;5121492;27;45437;-75
2022/08/17 06:18:19;;;;;;;;;64.25;49.75;;;;;;;;5121830;27;45506;-76
2022/08/17 06:20:53;;;;;;;;;66.25;50.25;;;;;;;;5102769;27;46757;-76
2022/08/17 06:23:24;;;;;;;;;63.00;48.50;;;;;;;;5121418;27;45403;-75
2022/08/17 06:25:51;;;;;;;;;63.75;50.50;;;;;;;;5121649;27;45418;-76
2022/08/17 06:28:27;;;;;;;;;64.50;52.00;;;;;;;;5121506;27;45437;-77
2022/08/17 06:30:57;;;;;;;;;60.00;48.50;;;;;;;;5120938;27;46922;-77
2022/08/17 06:33:25;;;;;;;;;63.50;48.50;;;;;;;;5121294;27;45468;-76
2022/08/17 06:36:29;;;;;;;;;67.25;51.00;;;;;;;;5121321;27;45403;-77
2022/08/17 06:39:12;;;;;;;;;66.25;52.50;;;;;;;;5057785;28;45435;-77
2022/08/17 06:41:48;;;;;;;;;58.75;47.50;;;;;;;;5057514;28;46213;-77
2022/08/17 06:44:26;;;;;;;;;63.75;47.50;;;;;;;;5056536;28;45448;-77
2022/08/17 06:46:59;;;;;;;;;58.75;47.50;;;;;;;;5057590;28;45382;-77
2022/08/17 06:49:27;;;;;;;;;63.50;49.75;;;;;;;;5057501;28;45554;-78
2022/08/17 06:51:52;;;;;;;;;65.00;50.75;;;;;;;;5057192;28;47395;-78
2022/08/17 06:54:24;;;;;;;;;65.50;52.00;;;;;;;;5057481;28;45378;-76
2022/08/17 06:57:05;;;;;;;;;68.75;51.25;;;;;;;;5057685;28;45428;-76
2022/08/17 06:59:36;;;;;;;;;65.25;52.25;;;;;;;;5057525;28;45374;-78
2022/08/17 07:02:04;;;;;;;;;62.50;47.75;;;;;;;;5057314;28;46045;-77
2022/08/17 07:04:31;;;;;;;;;67.25;54.50;;;;;;;;5057228;28;45337;-77
2022/08/17 07:06:59;;;;;;;;;65.25;51.75;;;;;;;;5057402;28;45333;-77
2022/08/17 07:09:28;;;;;;;;;62.25;49.25;;;;;;;;5082734;27;45399;-77
2022/08/17 07:11:56;;;;;;;;;62.50;48.75;;;;;;;;5120487;27;45497;-77
2022/08/17 07:14:42;;;;;;;;;65.50;52.75;;;;;;;;5120640;27;45347;-76
2022/08/17 07:17:12;;;;;;;;;65.75;52.00;;;;;;;;5120811;27;46045;-71
2022/08/17 07:19:42;;;;;;;;;71.25;53.00;;;;;;;;5120796;27;45351;-74
2022/08/17 07:22:17;;;;;;;;;65.00;52.00;;;;;;;;5120431;27;45653;-72
2022/08/17 07:24:48;;;;;;;;;64.75;49.25;;;;;;;;5120607;27;45574;-76
2022/08/17 07:27:13;;;;;;;;;66.00;50.50;;;;;;;;5120462;27;45412;-76
2022/08/17 07:29:42;;;;;;;;;71.00;55.75;;;;;;;;5120528;27;45340;-76
2022/08/17 07:32:08;;;;;;;;;67.75;51.00;;;;;;;;5101668;27;48469;-71
2022/08/17 07:34:58;;;;;;;;;65.50;49.25;;;;;;;;5120176;27;45406;-72
2022/08/17 07:37:23;;;;;;;;;69.00;53.00;;;;;;;;5120236;27;45272;-76
2022/08/17 07:39:48;;;;;;;;;61.50;51.00;;;;;;;;5120279;27;45222;-76
2022/08/17 07:42:13;;;;;;;;;64.25;51.75;;;;;;;;5120221;27;45405;-79
2022/08/17 07:44:54;;;;;;;;;58.50;46.50;;;;;;;;5120110;27;46169;-78
2022/08/17 07:50:22;;;;;;;;;68.75;51.25;;;;;;;;5120304;27;45310;-77
2022/08/17 07:52:47;;;;;;;;;56.67;45.33;;;;;;;;5119749;27;46127;-77
2022/08/17 07:55:28;;;;;;;;;57.00;47.00;;;;;;;;5119697;27;45847;-77
2022/08/17 07:57:56;;;;;;;;;35.25;30.00;;;;;;;;5120112;27;45326;-77
2022/08/17 08:00:23;;;;;;;;;58.50;46.00;;;;;;;;5120012;27;45166;-77
2022/08/17 08:02:58;;;;;;;;;57.75;45.50;;;;;;;;5119705;27;46175;-77
2022/08/17 08:05:25;;;;;;;;;62.50;46.50;;;;;;;;5119722;27;45313;-77
2022/08/17 08:07:59;;;;;;;;;54.75;43.25;;;;;;;;5119777;27;45387;-80
2022/08/17 08:10:27;;;;;;;;;58.25;45.50;;;;;;;;5120144;27;45322;-78
2022/08/17 08:13:09;;;;;;;;;53.00;43.00;;;;;;;;5119482;27;46566;-78
2022/08/17 08:15:37;;;;;;;;;56.33;44.33;;;;;;;;5119443;27;45343;-77
2022/08/17 08:18:03;;;;;;;;;53.00;42.00;;;;;;;;5119722;27;45276;-77
2022/08/17 08:20:31;;;;;;;;;50.33;41.67;;;;;;;;5119690;27;45263;-77
2022/08/17 08:23:06;;;;;;;;;54.00;43.75;;;;;;;;5119389;27;46418;-78
2022/08/17 08:25:39;;;;;;;;;54.50;44.50;;;;;;;;5118995;27;45358;-77
2022/08/17 08:28:04;;;;;;;;;55.75;45.00;;;;;;;;5119514;27;45299;-78
2022/08/17 08:30:33;;;;;;;;;56.00;44.00;;;;;;;;5119711;27;45287;-77
2022/08/17 08:33:16;;;;;;;;;57.25;45.25;;;;;;;;5119386;27;46428;-77
2022/08/17 08:35:47;;;;;;;;;58.25;47.00;;;;;;;;5119411;27;45233;-77
2022/08/17 08:38:28;;;;;;;;;59.00;46.00;;;;;;;;5119365;27;45368;-78
2022/08/17 08:41:06;;;;;;;;;53.25;44.00;;;;;;;;5119313;27;45474;-78
2022/08/17 08:43:52;;;;;;;;;56.75;42.50;;;;;;;;5119069;27;46271;-78
2022/08/17 08:46:34;;;;;;;;;54.75;44.75;;;;;;;;5119033;27;45350;-78
2022/08/17 08:49:06;;;;;;;;;55.75;46.00;;;;;;;;5119115;27;45241;-78
2022/08/17 08:51:50;;;;;;;;;52.00;41.00;;;;;;;;5119124;27;45438;-78
2022/08/17 08:54:15;;;;;;;;;53.00;40.67;;;;;;;;5118738;27;46256;-78
2022/08/17 08:56:47;;;;;;;;;56.33;43.67;;;;;;;;5118932;27;45226;-77
2022/08/17 08:59:23;;;;;;;;;50.67;40.67;;;;;;;;5119214;27;45290;-78
2022/08/17 09:01:51;;;;;;;;;56.33;43.00;;;;;;;;5119151;27;45310;-78
2022/08/17 09:04:27;;;;;;;;;55.67;44.67;;;;;;;;5118521;27;45250;-78
2022/08/17 09:07:07;;;;;;;;;55.00;44.00;;;;;;;;5118451;27;45315;-78
2022/08/17 09:09:44;;;;;;;;;53.67;42.00;;;;;;;;5118965;27;45295;-78
2022/08/17 09:12:15;;;;;;;;;48.67;41.67;;;;;;;;5118963;27;45247;-79
2022/08/17 09:15:00;;;;;;;;;61.50;47.25;;;;;;;;5118601;27;45605;-78
2022/08/17 09:17:34;;;;;;;;;47.33;39.67;;;;;;;;5118535;27;45314;-79
2022/08/17 09:20:24;;;;;;;;;46.67;38.67;;;;;;;;5118773;27;45492;-78
2022/08/17 09:23:10;;;;;;;;;53.25;45.00;;;;;;;;5118929;27;45233;-79
2022/08/17 09:25:44;;;;;;;;;46.67;40.00;;;;;;;;5106904;27;46283;-78
2022/08/17 09:28:17;;;;;;;;;40.67;36.67;;;;;;;;5118452;27;45413;-79
2022/08/17 09:30:45;;;;;;;;;45.00;37.33;;;;;;;;5118554;27;45492;-79
2022/08/17 09:33:13;;;;;;;;;55.33;43.33;;;;;;;;5118859;27;45196;-79
2022/08/17 09:35:44;;;;;;;;;51.33;41.33;;;;;;;;5118252;27;46410;-77
2022/08/17 09:38:48;;;;;;;;;50.75;42.75;;;;;;;;5099971;27;45352;-79
2022/08/17 09:41:22;;;;;;;;;47.33;39.67;;;;;;;;5054851;28;45381;-78
2022/08/17 09:43:53;;;;;;;;;40.33;36.33;;;;;;;;5055220;28;45477;-78
2022/08/17 09:46:18;;;;;;;;;43.00;36.33;;;;;;;;5054608;28;46651;-78
2022/08/17 09:48:54;;;;;;;;;49.00;41.33;;;;;;;;5054782;28;45350;-77
2022/08/17 09:51:29;;;;;;;;;43.67;36.00;;;;;;;;5054959;28;45455;-77
2022/08/17 09:53:54;;;;;;;;;44.67;37.67;;;;;;;;5055061;28;45411;-78
2022/08/17 09:56:29;;;;;;;;;48.33;38.00;;;;;;;;5054527;28;45397;-77
2022/08/17 09:58:58;;;;;;;;;44.33;34.33;;;;;;;;5054877;28;45416;-78
2022/08/17 10:01:42;;;;;;;;;46.67;38.33;;;;;;;;5054813;28;45364;-77
2022/08/17 10:04:22;;;;;;;;;46.00;37.33;;;;;;;;5037802;28;45501;-77
2022/08/17 10:07:17;;;;;;;;;48.33;40.67;;;;;;;;5054652;28;46491;-77
2022/08/17 10:10:11;;;;;;;;;50.33;40.33;;;;;;;;4978152;28;45336;-77
2022/08/17 10:12:43;;;;;;;;;46.67;39.33;;;;;;;;4965704;28;45529;-77
2022/08/17 10:15:14;;;;;;;;;44.67;38.33;;;;;;;;4975385;28;45437;-77
2022/08/17 10:17:39;;;;;;;;;44.33;38.33;;;;;;;;4974546;28;46059;-78
2022/08/17 10:20:19;;;;;;;;;44.33;36.67;;;;;;;;4976151;28;45451;-77
2022/08/17 10:28:19;;;;;;;;;40.67;36.33;;;;;;;;4978146;28;45755;-77
2022/08/17 10:30:47;;;;;;;;;45.33;39.00;;;;;;;;4978092;28;45442;-78
2022/08/17 10:33:18;;;;;;;;;47.33;38.33;;;;;;;;4978269;28;45459;-77
2022/08/17 10:35:43;;;;;;;;;52.00;40.33;;;;;;;;4978274;28;45440;-77
2022/08/17 10:38:27;;;;;;;;;207.67;181.67;;;;;;;;4977985;28;45464;-77
2022/08/17 10:41:10;;;;;;;;;86.50;76.75;;;;;;;;4977931;28;45268;-77
2022/08/17 10:43:56;;;;;;;;;50.67;39.67;;;;;;;;4978376;28;45509;-77
2022/08/17 10:46:33;;;;;;;;;41.00;37.00;;;;;;;;5013159;28;45609;-77
2022/08/17 10:49:17;;;;;;;;;47.00;40.33;;;;;;;;5076786;27;46350;-77
2022/08/17 10:51:46;;;;;;;;;45.33;35.00;;;;;;;;5120823;27;45270;-77
2022/08/17 10:54:24;;;;;;;;;46.67;39.33;;;;;;;;5121194;27;45426;-77
2022/08/17 10:56:50;;;;;;;;;49.00;39.75;;;;;;;;5121161;27;45284;-77
2022/08/17 10:59:33;;;;;;;;;50.33;39.33;;;;;;;;5120805;27;45420;-77
2022/08/17 11:02:11;;;;;;;;;49.00;40.00;;;;;;;;5120714;27;45200;-77
2022/08/17 11:04:55;;;;;;;;;45.67;37.00;;;;;;;;5120786;27;45275;-77
2022/08/17 11:07:26;;;;;;;;;46.33;38.00;;;;;;;;5120815;27;45315;-77
2022/08/17 11:10:11;;;;;;;;;45.33;36.67;;;;;;;;5120625;27;45364;-77
2022/08/17 11:12:40;;;;;;;;;50.33;40.33;;;;;;;;5120446;27;45326;-78
2022/08/17 11:15:23;;;;;;;;;56.75;45.50;;;;;;;;5120660;27;45216;-77
2022/08/17 11:17:56;;;;;;;;;46.67;38.67;;;;;;;;5120653;27;45483;-77
2022/08/17 11:20:24;;;;;;;;;52.67;39.67;;;;;;;;5120187;27;47111;-78
2022/08/17 11:22:51;;;;;;;;;46.67;37.00;;;;;;;;5119942;27;45299;-78
2022/08/17 11:25:19;;;;;;;;;51.67;43.67;;;;;;;;5120524;27;45236;-78
2022/08/17 11:27:52;;;;;;;;;48.00;40.67;;;;;;;;5120446;27;45481;-78
2022/08/17 11:30:37;;;;;;;;;50.67;40.00;;;;;;;;5101166;27;47365;-78
2022/08/17 11:33:23;;;;;;;;;48.33;40.33;;;;;;;;5120120;27;45236;-78
2022/08/17 11:35:50;;;;;;;;;53.00;41.00;;;;;;;;5120512;27;45469;-78
2022/08/17 11:38:18;;;;;;;;;47.00;38.00;;;;;;;;5120373;27;45508;-78
2022/08/17 11:41:02;;;;;;;;;49.33;41.33;;;;;;;;5119979;27;45269;-78
2022/08/17 11:43:45;;;;;;;;;51.33;41.67;;;;;;;;5120114;27;45353;-78
2022/08/17 11:51:32;;;;;;;;;51.00;39.00;;;;;;;;5120092;27;45552;-78
2022/08/17 11:52:02;;;;;;;;;46.33;37.00;;;;;;;;5119716;27;45356;-78
2022/08/17 11:54:34;;;;;;;;;52.00;42.75;;;;;;;;5120020;27;45389;-78
2022/08/17 11:57:20;;;;;;;;;47.00;38.33;;;;;;;;5119994;27;45409;-78
2022/08/17 11:59:45;;;;;;;;;52.00;42.50;;;;;;;;5108790;27;45447;-78
2022/08/17 12:02:10;;;;;;;;;65.25;48.25;;;;;;;;5119723;27;46142;-78
2022/08/17 12:04:36;;;;;;;;;41.67;34.33;;;;;;;;5119760;27;45447;-78
2022/08/17 12:07:09;;;;;;;;;48.00;37.33;;;;;;;;5119793;27;45392;-77
2022/08/17 12:09:37;;;;;;;;;47.00;35.33;;;;;;;;5120027;27;45495;-78
2022/08/17 12:12:08;;;;;;;;;44.33;36.33;;;;;;;;5119533;27;45532;-78
2022/08/17 12:14:34;;;;;;;;;43.00;36.33;;;;;;;;5119648;27;45575;-79
2022/08/17 12:17:01;;;;;;;;;43.33;37.33;;;;;;;;5119733;27;45279;-78
2022/08/17 12:19:28;;;;;;;;;44.00;35.33;;;;;;;;5119788;27;45418;-78
2022/08/17 12:21:57;;;;;;;;;43.00;34.67;;;;;;;;5118777;27;46212;-78
2022/08/17 12:24:43;;;;;;;;;49.00;38.67;;;;;;;;5119462;27;45204;-77
2022/08/17 12:27:10;;;;;;;;;42.00;34.33;;;;;;;;5119491;27;45424;-78
2022/08/17 12:29:35;;;;;;;;;40.67;35.33;;;;;;;;5119476;27;45484;-78
2022/08/17 12:32:02;;;;;;;;;40.33;35.00;;;;;;;;5118968;27;46093;-77
2022/08/17 12:34:33;;;;;;;;;48.00;39.00;;;;;;;;5119243;27;45449;-77
2022/08/17 12:37:00;;;;;;;;;43.67;37.00;;;;;;;;5119336;27;45331;-77
2022/08/17 12:39:26;;;;;;;;;47.00;36.33;;;;;;;;5119394;27;45369;-78
2022/08/17 12:41:53;;;;;;;;;42.33;36.33;;;;;;;;5118374;27;46553;-77
2022/08/17 12:44:23;;;;;;;;;38.33;34.00;;;;;;;;5118827;27;45288;-78
2022/08/17 12:46:48;;;;;;;;;40.67;33.00;;;;;;;;5119179;27;45417;-78
2022/08/17 12:49:21;;;;;;;;;34.33;32.33;;;;;;;;5119483;27;45412;-77
2022/08/17 12:51:47;;;;;;;;;38.67;33.33;;;;;;;;5118604;27;47633;-78
2022/08/17 12:54:27;;;;;;;;;39.67;33.33;;;;;;;;5118873;27;45185;-78
2022/08/17 12:56:52;;;;;;;;;47.67;37.33;;;;;;;;5119111;27;45309;-78
2022/08/17 12:59:19;;;;;;;;;39.00;34.33;;;;;;;;5119101;27;45414;-78
2022/08/17 13:01:45;;;;;;;;;40.67;35.33;;;;;;;;5118900;27;46393;-78
2022/08/17 13:04:14;;;;;;;;;39.67;35.33;;;;;;;;5118638;27;45461;-78
2022/08/17 13:06:45;;;;;;;;;46.67;37.67;;;;;;;;5119017;27;45425;-78
2022/08/17 13:09:21;;;;;;;;;46.33;38.00;;;;;;;;5118889;27;45458;-78
2022/08/17 13:11:51;;;;;;;;;46.00;36.33;;;;;;;;5118655;27;47055;-79
2022/08/17 13:14:17;;;;;;;;;44.33;35.67;;;;;;;;5118674;27;45261;-80
2022/08/17 13:16:48;;;;;;;;;37.00;33.33;;;;;;;;5118616;27;45322;-78
2022/08/17 13:19:20;;;;;;;;;48.00;39.00;;;;;;;;5119064;27;45456;-78
2022/08/17 13:21:46;;;;;;;;;47.33;37.33;;;;;;;;5118384;27;47640;-78
2022/08/17 13:24:18;;;;;;;;;46.33;38.00;;;;;;;;5100302;27;45283;-79
2022/08/17 13:26:46;;;;;;;;;49.33;38.33;;;;;;;;5118935;27;45384;-76
2022/08/17 13:29:22;;;;;;;;;43.33;37.67;;;;;;;;5118879;27;45548;-78
2022/08/17 13:31:48;;;;;;;;;42.33;35.33;;;;;;;;5118308;27;46633;-79
2022/08/17 13:34:39;;;;;;;;;37.67;33.33;;;;;;;;5118466;27;45492;-79
2022/08/17 13:37:17;;;;;;;;;45.00;35.67;;;;;;;;5118521;27;45314;-78
2022/08/17 13:39:42;;;;;;;;;38.33;34.33;;;;;;;;5118409;27;45369;-79
2022/08/17 13:42:26;;;;;;;;;42.33;36.00;;;;;;;;5118172;27;46259;-77
2022/08/17 13:44:51;;;;;;;;;44.00;36.00;;;;;;;;5118481;27;45375;-77
2022/08/17 13:47:18;;;;;;;;;40.33;34.00;;;;;;;;5118687;27;45318;-76
2022/08/17 13:49:44;;;;;;;;;40.67;33.67;;;;;;;;5118710;27;45357;-76
2022/08/17 13:52:13;;;;;;;;;40.67;35.67;;;;;;;;5117950;27;46098;-76
2022/08/17 13:54:38;;;;;;;;;43.00;35.33;;;;;;;;5120646;27;45357;-76
2022/08/17 13:57:05;;;;;;;;;36.33;32.00;;;;;;;;5122066;27;45837;-76
2022/08/17 13:59:32;;;;;;;;;42.67;35.00;;;;;;;;5122419;27;45449;-77
2022/08/17 14:01:58;;;;;;;;;46.00;36.67;;;;;;;;5122067;27;46111;-77
2022/08/17 14:04:26;;;;;;;;;39.33;32.33;;;;;;;;5121498;27;45315;-76
2022/08/17 14:06:57;;;;;;;;;36.33;32.33;;;;;;;;5122103;27;45303;-77
2022/08/17 14:09:27;;;;;;;;;36.33;30.67;;;;;;;;5121601;27;45652;-79
2022/08/17 14:11:53;;;;;;;;;39.00;34.67;;;;;;;;5121605;27;46422;-77
2022/08/17 14:14:21;;;;;;;;;40.00;32.33;;;;;;;;5121575;27;45325;-77
2022/08/17 14:16:47;;;;;;;;;32.67;29.33;;;;;;;;5121615;27;45409;-78
2022/08/17 14:19:12;;;;;;;;;41.00;31.67;;;;;;;;5121774;27;45552;-77
2022/08/17 14:21:43;;;;;;;;;38.33;32.00;;;;;;;;5121324;27;46972;-78
2022/08/17 14:24:19;;;;;;;;;35.67;31.00;;;;;;;;5121628;27;45460;-77
2022/08/17 14:26:44;;;;;;;;;34.00;31.33;;;;;;;;5121432;27;45364;-77
2022/08/17 14:29:10;;;;;;;;;39.67;34.00;;;;;;;;5121538;27;45529;-77
2022/08/17 14:31:35;;;;;;;;;37.67;32.67;;;;;;;;5121238;27;46147;-78
2022/08/17 14:34:00;;;;;;;;;36.33;32.33;;;;;;;;5121186;27;45383;-78
2022/08/17 14:36:25;;;;;;;;;29.67;29.33;;;;;;;;5121359;27;45261;-76
2022/08/17 14:38:51;;;;;;;;;38.33;33.67;;;;;;;;5121686;27;45191;-77
2022/08/17 14:41:16;;;;;;;;;34.00;31.00;;;;;;;;5120944;27;45313;-79
2022/08/17 14:43:42;;;;;;;;;37.67;33.33;;;;;;;;5121109;27;45248;-78
2022/08/17 14:46:08;;;;;;;;;40.00;32.33;;;;;;;;5121241;27;45325;-78
2022/08/17 14:48:37;;;;;;;;;39.00;32.67;;;;;;;;5121262;27;45212;-77
2022/08/17 14:51:03;;;;;;;;;38.33;33.67;;;;;;;;5121066;27;46177;-76
2022/08/17 14:53:28;;;;;;;;;37.33;34.00;;;;;;;;5121018;27;45910;-78
2022/08/17 14:55:53;;;;;;;;;37.33;32.33;;;;;;;;5121302;27;45287;-77
2022/08/17 14:58:19;;;;;;;;;32.67;30.33;;;;;;;;5121259;27;45321;-77